Dobrodošli na spletni strani vremenske postaje Senovo. Vse informacije so informativnega značaja, saj vremenska postaja ni del državne mreže meteoroloških postaj. AKTUALNIH OBVESTIL NI.


Posebna pozornost v zvezi z vremenskimi dogajanji ni potrebna.    Posebna pozornost v zvezi z vremenskimi dogajanji ni potrebna.

Pogled proti Armezu več informacij Pogled proti Armezu


Lisca več informacij Lisca


Radar strel več informacij blitzortung!


Radar padavin več informacij rain snow radar


Obiščite še:

Template documentation
and downloads

And another site



Weather Underground, zgodovina - Tekstovno

Dnevni povzetek za December 18, 2017 Enote:  Angleško    Metrično   Obe
« Predhodni Dan
Naslednji Dan »
Dnevni Tedenski Mesečni Letni Po meri
  Višja: Nižja: Povprečje:
Temperatura: TemperatureC °F -4.6 °F -1.1 °F
Točka rosišča: DewpointC °F -6.0 °F -2.4 °F
Vlažnost: Humidity % 0 % 90 %
Hitrost vetra: WindSpeedKMH mph 0.0 mph 1.4 mph
Sunki vetra: WindSpeedGustKMH mph - -
Veter:- - WSW
Zračni tlak: PressurehPa in 0.0 in -
Padavine: 0.0 in    
Historical Graphs
 
 
Tabelarni podarki za December 18, 2017
Čas Temperatura Točka rosišča Zračni tlak Veter Hitrost vetra Sunki vetra Vlažnost Intenziteta padavin (urna)
TemperatureC °F DewpointC °F PressurehPa in Calm     Humidity % HourlyPrecipMM in
00:02 -0.2 °F -1.1 °F 1020.9 in SW 2.4 mph 7.6 mph 94 % 0.0 in
00:07 -0.2 °F -1.1 °F 1020.9 in SSW 2.3 mph 7.6 mph 94 % 0.0 in
00:12 -0.3 °F -1.2 °F 1020.9 in South 2.3 mph 6.4 mph 94 % 0.0 in
00:15 -0.3 °F -1.2 °F 1020.9 in SSW 2.7 mph 6.4 mph 94 % 0.0 in
00:20 -0.3 °F -1.2 °F 1020.9 in SW 2.6 mph 7.2 mph 94 % 0.0 in
00:23 -0.3 °F -1.2 °F 1020.9 in SW 2.4 mph 7.2 mph 94 % 0.0 in
00:27 -0.3 °F -1.2 °F 1020.9 in SW 2.6 mph 7.2 mph 94 % 0.0 in
00:32 -0.3 °F -1.2 °F 1020.9 in SW 2.7 mph 6.4 mph 94 % 0.0 in
00:35 -0.4 °F -1.2 °F 1020.9 in WSW 3.9 mph 7.9 mph 94 % 0.0 in
00:37 -0.4 °F -1.2 °F 1020.9 in WSW 3.9 mph 7.9 mph 94 % 0.0 in
00:40 -0.4 °F -1.2 °F 1020.9 in West 3.4 mph 7.9 mph 94 % 0.0 in
00:46 -0.5 °F -1.3 °F 1020.9 in North 1.8 mph 4.7 mph 94 % 0.0 in
00:48 -0.5 °F -1.3 °F 1020.9 in North 1.9 mph 4.7 mph 94 % 0.0 in
00:55 -0.5 °F -1.3 °F 1020.9 in North 2.1 mph 4.7 mph 94 % 0.0 in
00:59 -0.5 °F -1.3 °F 1020.9 in WSW 2.3 mph 5.5 mph 94 % 0.0 in
01:01 -0.5 °F -1.3 °F 1020.9 in WSW 1.8 mph 5.5 mph 94 % 0.0 in
01:06 -0.5 °F -1.3 °F 1020.9 in SW 1.1 mph 5.5 mph 94 % 0.0 in
01:07 -0.5 °F -1.3 °F 1020.9 in SSW 0.8 mph 3.5 mph 94 % 0.0 in
01:11 -0.5 °F -1.3 °F 1020.9 in SSW 1.8 mph 5.5 mph 94 % 0.0 in
01:17 -0.5 °F -1.3 °F 1021.9 in SSW 3.4 mph 5.5 mph 94 % 0.0 in
01:22 -0.5 °F -1.3 °F 1021.9 in SW 2.9 mph 5.5 mph 94 % 0.0 in
01:23 -0.5 °F -1.3 °F 1021.9 in SW 2.9 mph 5.5 mph 94 % 0.0 in
01:28 -0.5 °F -1.3 °F 1021.9 in WSW 2.7 mph 5.5 mph 94 % 0.0 in
01:33 -0.5 °F -1.3 °F 1020.9 in SW 1.0 mph 3.5 mph 94 % 0.0 in
01:35 -0.5 °F -1.3 °F 1020.9 in SW 0.5 mph 3.5 mph 94 % 0.0 in
01:38 -0.5 °F -1.3 °F 1020.9 in NE 0.6 mph 4.0 mph 94 % 0.0 in
01:41 -0.5 °F -1.3 °F 1020.9 in NE 0.6 mph 4.0 mph 94 % 0.0 in
01:43 -0.5 °F -1.3 °F 1020.9 in NE 0.6 mph 4.0 mph 94 % 0.0 in
01:48 -0.5 °F -1.3 °F 1021.9 in WSW 0.2 mph 2.6 mph 94 % 0.0 in
01:49 -0.5 °F -1.3 °F 1021.9 in WSW 0.2 mph 2.6 mph 94 % 0.0 in
01:54 -0.5 °F -1.3 °F 1021.9 in WNW 0.5 mph 4.0 mph 94 % 0.0 in
01:56 -0.5 °F -1.3 °F 1021.9 in NW 0.3 mph 4.0 mph 94 % 0.0 in
02:01 -0.5 °F -1.3 °F 1021.9 in SW 0.5 mph 4.3 mph 94 % 0.0 in
02:06 -0.5 °F -1.3 °F 1021.9 in SW 2.6 mph 6.4 mph 94 % 0.0 in
02:08 -0.5 °F -1.3 °F 1021.9 in SW 3.2 mph 6.9 mph 94 % 0.0 in
02:12 -0.5 °F -1.3 °F 1021.9 in SW 4.2 mph 6.9 mph 94 % 0.0 in
02:14 -0.5 °F -1.3 °F 1021.9 in SW 4.2 mph 6.9 mph 94 % 0.0 in
02:19 -0.5 °F -1.3 °F 1020.9 in SW 3.1 mph 5.0 mph 94 % 0.0 in
02:21 -0.5 °F -1.3 °F 1020.9 in SW 2.9 mph 5.5 mph 94 % 0.0 in
02:22 -0.5 °F -1.3 °F 1020.9 in SW 2.4 mph 5.5 mph 94 % 0.0 in
02:27 -0.5 °F -1.3 °F 1020.9 in NNE 1.1 mph 5.5 mph 94 % 0.0 in
02:32 -0.5 °F -1.3 °F 1021.9 in ENE 0.3 mph 4.3 mph 94 % 0.0 in
02:34 -0.5 °F -1.3 °F 1021.9 in NE 0.8 mph 4.3 mph 94 % 0.0 in
02:37 -0.6 °F -1.4 °F 1021.9 in NNE 0.8 mph 4.3 mph 94 % 0.0 in
02:40 -0.6 °F -1.4 °F 1021.9 in NNE 0.8 mph 4.3 mph 94 % 0.0 in
02:43 -0.5 °F -1.3 °F 1021.9 in NNW 0.8 mph 3.5 mph 94 % 0.0 in
02:46 -0.5 °F -1.3 °F 1020.9 in SW 0.8 mph 3.5 mph 94 % 0.0 in
02:51 -0.6 °F -1.4 °F 1020.9 in SW 2.4 mph 6.1 mph 94 % 0.0 in
02:53 -0.6 °F -1.4 °F 1020.9 in WSW 3.1 mph 6.1 mph 94 % 0.0 in
02:58 -0.6 °F -1.4 °F 1020.9 in WNW 3.4 mph 6.1 mph 94 % 0.0 in
03:00 -0.8 °F -1.7 °F 1020.9 in NW 2.4 mph 4.3 mph 94 % 0.0 in
03:04 -0.6 °F -1.4 °F 1020.9 in NNW 1.6 mph 4.7 mph 94 % 0.0 in
03:08 -0.7 °F -1.6 °F 1020.9 in NNW 1.3 mph 4.7 mph 94 % 0.0 in
03:13 -0.7 °F -1.6 °F 1020.9 in NNW 1.6 mph 4.7 mph 94 % 0.0 in
03:18 -0.7 °F -1.6 °F 1020.9 in NW 2.3 mph 6.1 mph 94 % 0.0 in
03:19 -0.7 °F -1.6 °F 1020.9 in NW 2.4 mph 6.1 mph 94 % 0.0 in
03:23 -0.7 °F -1.6 °F 1020.9 in West 3.2 mph 6.1 mph 94 % 0.0 in
03:28 -0.7 °F -1.6 °F 1020.9 in West 2.1 mph 6.1 mph 94 % 0.0 in
03:29 -0.7 °F -1.6 °F 1020.9 in West 2.1 mph 6.1 mph 94 % 0.0 in
03:30 -0.7 °F -1.6 °F 1020.9 in West 1.9 mph 5.0 mph 94 % 0.0 in
03:34 -0.8 °F -1.7 °F 1020.9 in NW 1.8 mph 6.1 mph 94 % 0.0 in
03:36 -0.8 °F -1.7 °F 1020.9 in NNW 1.8 mph 6.1 mph 94 % 0.0 in
03:39 -0.8 °F -1.7 °F 1020.9 in NNW 2.7 mph 6.1 mph 94 % 0.0 in
03:44 -0.8 °F -1.7 °F 1020.9 in NNW 2.1 mph 5.8 mph 94 % 0.0 in
03:47 -0.8 °F -1.7 °F 1020.9 in NW 1.3 mph 5.5 mph 94 % 0.0 in
03:53 -0.7 °F -1.6 °F 1020.9 in SW 1.0 mph 5.0 mph 94 % 0.0 in
03:54 -0.7 °F -1.6 °F 1020.9 in SW 1.3 mph 5.0 mph 94 % 0.0 in
03:55 -0.7 °F -1.6 °F 1020.9 in SW 1.6 mph 5.8 mph 94 % 0.0 in
04:00 -0.7 °F -1.6 °F 1020.9 in SSW 3.4 mph 5.8 mph 94 % 0.0 in
04:02 -0.7 °F -1.6 °F 1020.9 in SW 3.5 mph 5.8 mph 94 % 0.0 in
04:07 -0.7 °F -1.6 °F 1020.9 in SW 3.4 mph 5.8 mph 94 % 0.0 in
04:09 -0.7 °F -1.6 °F 1020.9 in WSW 2.4 mph 5.8 mph 94 % 0.0 in
04:16 -0.7 °F -1.6 °F 1020.9 in West 0.5 mph 2.6 mph 94 % 0.0 in
04:21 -0.7 °F -1.6 °F 1020.9 in SW 1.0 mph 3.5 mph 94 % 0.0 in
04:24 -0.7 °F -1.6 °F 1020.9 in SW 1.0 mph 3.5 mph 94 % 0.0 in
04:29 -0.8 °F -1.7 °F 1020.9 in NW 0.8 mph 5.5 mph 94 % 0.0 in
04:30 -0.8 °F -1.7 °F 1020.9 in NW 0.8 mph 5.5 mph 94 % 0.0 in
04:31 -0.8 °F -1.7 °F 1020.9 in NW 0.8 mph 5.5 mph 94 % 0.0 in
04:36 -0.8 °F -1.7 °F 1020.9 in West 2.7 mph 6.4 mph 94 % 0.0 in
04:38 -0.8 °F -1.7 °F 1020.9 in West 3.4 mph 6.4 mph 94 % 0.0 in
04:43 -0.8 °F -1.7 °F 1020.9 in WSW 2.1 mph 5.0 mph 94 % 0.0 in
04:44 -0.8 °F -1.7 °F 1020.9 in SW 1.9 mph 5.0 mph 94 % 0.0 in
04:49 -0.9 °F -1.9 °F 1020.9 in NNW 1.3 mph 4.0 mph 93 % 0.0 in
04:52 -0.9 °F -1.9 °F 1020.9 in NW 1.9 mph 4.0 mph 93 % 0.0 in
04:55 -0.9 °F -1.9 °F 1020.9 in NW 1.8 mph 4.0 mph 93 % 0.0 in
05:00 -0.9 °F -1.9 °F 1020.9 in WNW 0.5 mph 4.0 mph 93 % 0.0 in
05:03 -1.0 °F -1.8 °F 1020.9 in NNW 0.2 mph 2.1 mph 94 % 0.0 in
05:08 -1.0 °F -1.8 °F 1020.9 in NNW 0.3 mph 2.1 mph 94 % 0.0 in
05:09 -1.0 °F -1.8 °F 1020.9 in NNW 0.3 mph 2.1 mph 94 % 0.0 in
05:14 -1.0 °F -1.8 °F 1020.9 in NNW 1.1 mph 4.3 mph 94 % 0.0 in
05:18 -1.0 °F -1.8 °F 1020.9 in NNW 1.9 mph 4.3 mph 94 % 0.0 in
05:21 -1.0 °F -1.8 °F 1020.9 in NNW 2.4 mph 4.3 mph 94 % 0.0 in
05:26 -1.0 °F -1.8 °F 1020.9 in NNW 2.6 mph 5.0 mph 94 % 0.0 in
05:28 -1.0 °F -1.8 °F 1020.9 in NNW 2.7 mph 5.8 mph 94 % 0.0 in
05:32 -1.1 °F -1.9 °F 1020.9 in NNW 3.2 mph 5.8 mph 94 % 0.0 in
05:33 -1.1 °F -1.9 °F 1020.9 in NNW 2.6 mph 5.8 mph 94 % 0.0 in
05:39 -1.1 °F -2.1 °F 1020.9 in West 1.8 mph 4.0 mph 93 % 0.0 in
05:40 -1.1 °F -2.1 °F 1020.9 in West 1.6 mph 4.0 mph 93 % 0.0 in
05:45 -1.1 °F -2.1 °F 1020.9 in WNW 1.6 mph 4.0 mph 93 % 0.0 in
05:52 -1.1 °F -2.1 °F 1020.9 in WSW 1.8 mph 4.3 mph 93 % 0.0 in
05:57 -1.1 °F -2.1 °F 1020.9 in WSW 0.8 mph 4.0 mph 93 % 0.0 in
06:00 -1.1 °F -2.1 °F 1020.9 in West 0.5 mph 4.3 mph 93 % 0.0 in
06:05 -1.1 °F -2.1 °F 1020.9 in NW 1.8 mph 4.7 mph 93 % 0.0 in
06:10 -1.2 °F -2.2 °F 1020.9 in NNW 1.8 mph 4.7 mph 93 % 0.0 in
06:11 -1.2 °F -2.2 °F 1020.9 in NNW 1.8 mph 4.7 mph 93 % 0.0 in
06:16 -1.2 °F -2.2 °F 1021.9 in North 1.4 mph 5.5 mph 93 % 0.0 in
06:17 -1.2 °F -2.2 °F 1021.9 in NNW 1.4 mph 5.5 mph 93 % 0.0 in
06:19 -1.2 °F -2.2 °F 1021.9 in NNW 2.6 mph 5.8 mph 93 % 0.0 in
06:24 -1.2 °F -2.2 °F 1021.9 in North 3.5 mph 5.8 mph 93 % 0.0 in
06:27 -1.2 °F -2.2 °F 1021.9 in NNW 3.9 mph 5.8 mph 93 % 0.0 in
06:29 -1.3 °F -2.3 °F 1021.9 in North 3.9 mph 6.1 mph 93 % 0.0 in
06:32 -1.3 °F -2.3 °F 1021.9 in NNW 3.7 mph 6.1 mph 93 % 0.0 in
06:36 -1.3 °F -2.3 °F 1021.9 in NNW 3.9 mph 6.1 mph 93 % 0.0 in
06:40 -1.3 °F -2.3 °F 1021.9 in NNW 3.1 mph 5.8 mph 93 % 0.0 in
06:42 -1.3 °F -2.3 °F 1021.9 in NW 1.8 mph 5.0 mph 93 % 0.0 in
06:46 -1.3 °F -2.3 °F 1020.9 in West 0.6 mph 2.6 mph 93 % 0.0 in
06:51 -1.3 °F -2.3 °F 1020.9 in SW 0.6 mph 2.6 mph 93 % 0.0 in
06:54 -1.3 °F -2.3 °F 1020.9 in SW 1.0 mph 3.5 mph 93 % 0.0 in
06:59 -1.3 °F -2.3 °F 1021.9 in SSW 0.8 mph 5.5 mph 93 % 0.0 in
07:01 -1.4 °F -2.4 °F 1021.9 in SSW 1.3 mph 5.5 mph 93 % 0.0 in
07:05 -1.3 °F -2.3 °F 1021.9 in SW 2.6 mph 6.4 mph 93 % 0.0 in
07:10 -1.4 °F -2.4 °F 1021.9 in West 3.1 mph 6.4 mph 93 % 0.0 in
07:11 -1.4 °F -2.4 °F 1021.9 in West 2.6 mph 6.4 mph 93 % 0.0 in
07:16 -1.4 °F -2.4 °F 1021.9 in NW 1.0 mph 5.0 mph 93 % 0.0 in
07:17 -1.4 °F -2.4 °F 1021.9 in North 0.8 mph 4.0 mph 93 % 0.0 in
07:18 -1.4 °F -2.4 °F 1021.9 in NE 0.6 mph 4.0 mph 93 % 0.0 in
07:23 -1.3 °F -2.3 °F 1021.9 in ESE 2.3 mph 5.8 mph 93 % 0.0 in
07:28 -1.3 °F -2.3 °F 1021.9 in East 3.7 mph 6.1 mph 93 % 0.0 in
07:29 -1.3 °F -2.3 °F 1021.9 in East 3.7 mph 6.1 mph 93 % 0.0 in
07:34 -1.4 °F -2.4 °F 1022.9 in East 4.2 mph 6.1 mph 93 % 0.0 in
07:35 -1.4 °F -2.4 °F 1022.9 in ENE 4.2 mph 6.1 mph 93 % 0.0 in
07:40 -1.4 °F -2.4 °F 1022.9 in ENE 3.4 mph 5.5 mph 93 % 0.0 in
07:45 -1.4 °F -2.4 °F 1022.9 in ENE 1.6 mph 5.0 mph 93 % 0.0 in
07:47 -1.4 °F -2.4 °F 1022.9 in NE 0.6 mph 2.6 mph 93 % 0.0 in
07:51 -1.4 °F -2.4 °F 1022.9 in NNE 0.6 mph 3.5 mph 93 % 0.0 in
07:56 -1.4 °F -2.4 °F 1022.9 in NNE 1.3 mph 4.0 mph 93 % 0.0 in
08:02 -1.4 °F -2.4 °F 1022.9 in NNW 1.4 mph 4.3 mph 93 % 0.0 in
08:03 -1.4 °F -2.4 °F 1022.9 in NNW 1.3 mph 4.3 mph 93 % 0.0 in
08:08 -1.4 °F -2.4 °F 1022.9 in NW 0.5 mph 3.2 mph 93 % 0.0 in
08:10 -1.4 °F -2.4 °F 1022.9 in North 0.3 mph 4.0 mph 93 % 0.0 in
08:14 -1.4 °F -2.4 °F 1022.9 in North 0.6 mph 4.0 mph 93 % 0.0 in
08:15 -1.4 °F -2.4 °F 1022.9 in North 0.6 mph 4.0 mph 93 % 0.0 in
08:19 -1.4 °F -2.4 °F 1022.9 in NNW 1.3 mph 4.7 mph 93 % 0.0 in
08:21 -1.4 °F -2.4 °F 1022.9 in NNW 1.6 mph 5.0 mph 93 % 0.0 in
08:26 -1.4 °F -2.4 °F 1022.9 in NNW 2.9 mph 6.1 mph 93 % 0.0 in
08:27 -1.4 °F -2.4 °F 1022.9 in NNW 3.1 mph 6.1 mph 93 % 0.0 in
08:32 -1.4 °F -2.4 °F 1022.9 in NW 2.4 mph 6.1 mph 93 % 0.0 in
08:33 -1.4 °F -2.4 °F 1022.9 in NNW 2.1 mph 5.0 mph 93 % 0.0 in
08:38 -1.4 °F -2.4 °F 1022.9 in North 1.1 mph 4.0 mph 93 % 0.0 in
08:39 -1.4 °F -2.4 °F 1022.9 in North 1.1 mph 4.0 mph 93 % 0.0 in
08:44 -1.4 °F -2.4 °F 1022.9 in NNW 1.4 mph 4.3 mph 93 % 0.0 in
08:45 -1.4 °F -2.4 °F 1022.9 in NNW 1.6 mph 4.3 mph 93 % 0.0 in
08:50 -1.4 °F -2.4 °F 1022.9 in NNW 1.3 mph 4.3 mph 93 % 0.0 in
08:53 -1.4 °F -2.4 °F 1022.9 in NNW 1.9 mph 4.3 mph 93 % 0.0 in
08:58 -1.3 °F -2.3 °F 1022.9 in North 2.4 mph 5.5 mph 93 % 0.0 in
09:02 -1.3 °F -2.3 °F 1022.9 in North 2.6 mph 5.5 mph 93 % 0.0 in
09:06 -1.3 °F -2.4 °F 1022.9 in North 1.9 mph 5.5 mph 92 % 0.0 in
09:10 -1.3 °F -2.4 °F 1022.9 in NNW 1.0 mph 4.0 mph 92 % 0.0 in
09:15 -1.2 °F -2.3 °F 1022.9 in North 1.0 mph 4.0 mph 92 % 0.0 in
09:18 -1.2 °F -2.2 °F 1022.9 in North 2.1 mph 5.8 mph 93 % 0.0 in
09:21 -1.2 °F -2.3 °F 1022.9 in NNW 2.9 mph 5.8 mph 92 % 0.0 in
09:26 -1.3 °F -2.4 °F 1022.9 in NNW 2.4 mph 5.8 mph 92 % 0.0 in
09:28 -1.3 °F -2.4 °F 1022.9 in NW 1.9 mph 5.8 mph 92 % 0.0 in
09:33 -1.3 °F -2.4 °F 1022.9 in SW 2.3 mph 5.0 mph 92 % 0.0 in
09:38 -1.2 °F -2.3 °F 1022.9 in SSW 3.4 mph 5.0 mph 92 % 0.0 in
09:43 -1.2 °F -2.3 °F 1022.9 in SSW 2.9 mph 4.7 mph 92 % 0.0 in
09:47 -1.1 °F -2.2 °F 1022.9 in SSW 2.9 mph 4.7 mph 92 % 0.0 in
09:52 -1.1 °F -2.2 °F 1022.9 in SE 2.9 mph 4.0 mph 92 % 0.0 in
09:54 -1.1 °F -2.2 °F 1022.9 in ESE 2.7 mph 4.0 mph 92 % 0.0 in
09:59 -1.1 °F -2.2 °F 1022.9 in South 1.9 mph 5.8 mph 92 % 0.0 in
10:02 -1.1 °F -2.2 °F 1022.9 in SW 2.3 mph 5.8 mph 92 % 0.0 in
10:07 -1.0 °F -2.1 °F 1022.9 in WSW 2.7 mph 5.8 mph 92 % 0.0 in
10:10 -1.0 °F -2.1 °F 1022.9 in WNW 2.7 mph 4.7 mph 92 % 0.0 in
10:15 -1.0 °F -2.1 °F 1021.9 in NNW 1.8 mph 4.3 mph 92 % 0.0 in
10:16 -1.0 °F -2.1 °F 1021.9 in NNW 1.8 mph 4.3 mph 92 % 0.0 in
10:18 -1.0 °F -2.1 °F 1021.9 in NNW 1.4 mph 4.3 mph 92 % 0.0 in
10:23 -1.0 °F -2.1 °F 1021.9 in SSW 1.3 mph 4.3 mph 92 % 0.0 in
10:28 -0.9 °F -2.1 °F 1021.9 in South 2.3 mph 5.0 mph 92 % 0.0 in
10:30 -0.9 °F -2.1 °F 1022.9 in South 2.6 mph 5.0 mph 92 % 0.0 in
10:33 -0.9 °F -2.1 °F 1022.9 in South 1.8 mph 5.0 mph 92 % 0.0 in
10:38 -0.8 °F -1.9 °F 1022.9 in SSE 0.3 mph 2.1 mph 92 % 0.0 in
10:41 -0.8 °F -1.9 °F 1022.9 in NNW 0.3 mph 4.3 mph 92 % 0.0 in
10:46 -0.7 °F -1.8 °F 1021.9 in NNW 0.6 mph 4.3 mph 92 % 0.0 in
10:48 -0.7 °F -1.8 °F 1021.9 in NW 0.8 mph 5.0 mph 92 % 0.0 in
10:53 -0.6 °F -1.7 °F 1021.9 in West 2.3 mph 6.1 mph 92 % 0.0 in
10:58 -0.5 °F -1.7 °F 1021.9 in SW 4.2 mph 6.1 mph 92 % 0.0 in
11:03 -0.4 °F -1.6 °F 1021.9 in SSW 3.5 mph 5.5 mph 92 % 0.0 in
11:08 -0.2 °F -1.3 °F 1021.9 in SSW 2.1 mph 6.9 mph 92 % 0.0 in
11:10 -0.2 °F -1.3 °F 1021.9 in West 2.4 mph 6.9 mph 92 % 0.0 in
11:12 -0.3 °F -1.4 °F 1021.9 in NNW 2.6 mph 6.9 mph 92 % 0.0 in
11:16 -0.3 °F -1.4 °F 1022.9 in NNW 3.7 mph 7.6 mph 92 % 0.0 in
11:21 -0.3 °F -1.4 °F 1022.9 in NNW 3.9 mph 7.6 mph 92 % 0.0 in
11:26 -0.3 °F -1.4 °F 1022.9 in NW 2.3 mph 5.8 mph 92 % 0.0 in
11:30 -0.2 °F -1.3 °F 1022.9 in WNW 2.1 mph 5.8 mph 92 % 0.0 in
11:35 0.0 °F -1.2 °F 1022.9 in West 2.7 mph 5.8 mph 92 % 0.0 in
11:40 0.0 °F -1.2 °F 1022.9 in West 2.1 mph 5.5 mph 92 % 0.0 in
11:45 0.2 °F -0.9 °F 1021.9 in WNW 1.8 mph 5.0 mph 92 % 0.0 in
11:49 0.4 °F -0.7 °F 1021.9 in WNW 1.9 mph 5.8 mph 92 % 0.0 in
11:50 0.4 °F -0.7 °F 1021.9 in WNW 2.1 mph 5.8 mph 92 % 0.0 in
11:55 0.6 °F -0.6 °F 1021.9 in West 2.6 mph 5.8 mph 92 % 0.0 in
11:56 0.7 °F -0.4 °F 1021.9 in West 2.7 mph 5.8 mph 92 % 0.0 in
12:01 0.8 °F -0.3 °F 1023.9 in WSW 3.5 mph 5.8 mph 92 % 0.0 in
12:02 0.9 °F -0.3 °F 1023.9 in SW 3.9 mph 6.9 mph 92 % 0.0 in
12:08 1.1 °F -0.1 °F 1023.9 in SW 4.5 mph 6.9 mph 92 % 0.0 in
12:11 1.3 °F 0.2 °F 1023.9 in SW 4.8 mph 9.3 mph 92 % 0.0 in
12:14 1.3 °F 0.2 °F 1023.9 in SW 4.8 mph 9.3 mph 92 % 0.0 in
12:32 1.9 °F 0.7 °F 1022.9 in SSW 3.5 mph 5.8 mph 92 % 0.0 in
12:37 2.4 °F 1.1 °F 1022.9 in SSW 5.3 mph 7.9 mph 91 % 0.0 in
12:42 2.5 °F 1.2 °F 1022.9 in SSW 6.8 mph 7.9 mph 91 % 0.0 in
12:43 2.5 °F 1.2 °F 1022.9 in SSW 6.6 mph 7.9 mph 91 % 0.0 in
12:48 2.4 °F 1.1 °F 1022.9 in SSW 6.1 mph 7.9 mph 91 % 0.0 in
12:55 2.3 °F 0.8 °F 1022.9 in SSW 3.2 mph 6.9 mph 90 % 0.0 in
12:56 2.2 °F 0.7 °F 1022.9 in SSW 2.7 mph 6.9 mph 90 % 0.0 in
13:00 2.2 °F 0.7 °F 1022.9 in SSW 2.3 mph 5.5 mph 90 % 0.0 in
13:01 2.2 °F 0.7 °F 1022.9 in SSW 2.3 mph 5.5 mph 90 % 0.0 in
13:06 2.2 °F 0.6 °F 1022.9 in SW 3.4 mph 5.5 mph 89 % 0.0 in
13:10 2.1 °F 0.5 °F 1022.9 in WSW 3.2 mph 5.5 mph 89 % 0.0 in
13:15 2.0 °F 0.4 °F 1021.9 in WSW 2.4 mph 5.5 mph 89 % 0.0 in
13:16 2.0 °F 0.4 °F 1021.9 in ESE 2.3 mph 5.5 mph 89 % 0.0 in
13:21 2.0 °F 0.2 °F 1021.9 in East 2.1 mph 5.5 mph 88 % 0.0 in
13:23 1.9 °F 0.3 °F 1021.9 in East 2.3 mph 5.5 mph 89 % 0.0 in
13:28 1.9 °F 0.1 °F 1021.9 in NE 2.1 mph 5.5 mph 88 % 0.0 in
13:32 1.8 °F 0.0 °F 1021.9 in NNE 1.8 mph 5.5 mph 88 % 0.0 in
13:34 1.8 °F 0.0 °F 1021.9 in North 1.4 mph 5.5 mph 88 % 0.0 in
13:37 1.8 °F 0.0 °F 1021.9 in NNE 1.0 mph 5.5 mph 88 % 0.0 in
13:42 1.9 °F 0.1 °F 1021.9 in NNW 2.9 mph 4.0 mph 88 % 0.0 in
13:43 1.9 °F -0.1 °F 1021.9 in NNW 2.3 mph 4.0 mph 87 % 0.0 in
13:45 1.9 °F -0.1 °F 1021.9 in NNW 1.6 mph 4.0 mph 87 % 0.0 in
13:49 1.9 °F -0.1 °F 1021.9 in NNW 1.1 mph 4.0 mph 87 % 0.0 in
13:54 1.9 °F -0.1 °F 1021.9 in WSW 0.5 mph 4.0 mph 87 % 0.0 in
14:02 2.0 °F -0.1 °F 1020.9 in SSE 3.4 mph 4.0 mph 86 % 0.0 in
14:07 2.1 °F 0.0 °F 0.0 in SW 3.4 mph 7.9 mph 86 % 0.0 in
14:09 2.1 °F 0.0 °F 1020.9 in SW 2.4 mph 7.9 mph 86 % 0.0 in
14:14 2.0 °F -0.1 °F 1021.9 in SW 1.3 mph 7.9 mph 86 % 0.0 in
14:16 2.0 °F -0.1 °F 1021.9 in SW 1.0 mph 7.9 mph 86 % 0.0 in
14:20 2.1 °F 0.0 °F 1021.9 in SW 1.0 mph 7.9 mph 86 % 0.0 in
14:21 2.0 °F -0.1 °F 1021.9 in SW 1.0 mph 7.9 mph 86 % 0.0 in
14:26 2.0 °F -0.3 °F 1021.9 in SW 1.0 mph 7.9 mph 85 % 0.0 in
14:30 2.0 °F -0.3 °F 1021.9 in SW 1.0 mph 7.9 mph 85 % 0.0 in
14:33 2.0 °F -0.3 °F 1021.9 in SW 1.0 mph 7.9 mph 85 % 0.0 in
14:38 2.1 °F -0.2 °F 1021.9 in WSW 1.8 mph 7.9 mph 85 % 0.0 in
14:39 2.1 °F -0.2 °F 1021.9 in WSW 1.9 mph 7.9 mph 85 % 0.0 in
14:40 2.1 °F -0.2 °F 1021.9 in WSW 2.3 mph 7.9 mph 85 % 0.0 in
14:44 2.1 °F -0.2 °F 1021.9 in WSW 2.7 mph 7.9 mph 85 % 0.0 in
14:49 2.0 °F -0.3 °F 1021.9 in WSW 2.9 mph 7.9 mph 85 % 0.0 in
14:53 1.9 °F -0.3 °F 1021.9 in WSW 2.3 mph 7.9 mph 85 % 0.0 in
14:56 1.8 °F -0.4 °F 1021.9 in SW 1.9 mph 7.9 mph 85 % 0.0 in
15:01 1.7 °F -0.7 °F 1021.9 in SW 2.1 mph 7.9 mph 84 % 0.0 in
15:02 1.7 °F -0.7 °F 1021.9 in SW 2.4 mph 7.9 mph 84 % 0.0 in
15:03 1.6 °F -0.8 °F 1021.9 in WSW 2.7 mph 7.9 mph 84 % 0.0 in
15:08 1.4 °F -1.0 °F 1021.9 in SW 2.1 mph 7.9 mph 84 % 0.0 in
15:09 1.4 °F -1.0 °F 1021.9 in SW 2.1 mph 7.9 mph 84 % 0.0 in
15:14 1.3 °F -1.1 °F 1021.9 in SW 1.9 mph 7.9 mph 84 % 0.0 in
15:19 1.0 °F -1.6 °F 1021.9 in SW 1.9 mph 7.9 mph 83 % 0.0 in
15:24 0.9 °F -1.5 °F 1021.9 in SW 1.0 mph 7.9 mph 84 % 0.0 in
15:28 0.7 °F -1.8 °F 1021.9 in SW 1.0 mph 7.9 mph 83 % 0.0 in
15:33 0.6 °F -1.9 °F 1021.9 in SW 1.0 mph 7.9 mph 83 % 0.0 in
15:34 0.6 °F -1.9 °F 1021.9 in SW 1.0 mph 7.9 mph 83 % 0.0 in
15:39 0.4 °F -2.2 °F 1021.9 in SW 1.1 mph 7.9 mph 83 % 0.0 in
15:40 0.4 °F -2.2 °F 1021.9 in SW 1.1 mph 7.9 mph 83 % 0.0 in
15:45 0.3 °F -2.2 °F 1022.9 in West 1.9 mph 7.9 mph 83 % 0.0 in
15:47 0.3 °F -2.2 °F 1022.9 in WNW 2.4 mph 7.9 mph 83 % 0.0 in
15:52 0.1 °F -2.4 °F 1022.9 in WNW 2.7 mph 7.9 mph 83 % 0.0 in
15:57 0.1 °F -2.4 °F 1022.9 in WNW 2.6 mph 7.9 mph 83 % 0.0 in
15:59 0.0 °F -2.6 °F 1022.9 in WNW 2.3 mph 7.9 mph 83 % 0.0 in
16:04 -0.1 °F -2.7 °F 1022.9 in WSW 1.8 mph 7.9 mph 83 % 0.0 in
16:06 -0.2 °F -2.7 °F 1022.9 in WSW 1.4 mph 7.9 mph 83 % 0.0 in
16:11 -0.3 °F -2.8 °F 1022.9 in SW 1.0 mph 7.9 mph 83 % 0.0 in
16:15 -0.5 °F -3.1 °F 1022.9 in SW 1.0 mph 7.9 mph 83 % 0.0 in
16:17 -0.5 °F -3.1 °F 1022.9 in SW 1.0 mph 7.9 mph 83 % 0.0 in
16:22 -0.6 °F -3.1 °F 1022.9 in SW 1.4 mph 7.9 mph 83 % 0.0 in
16:27 -0.7 °F -3.2 °F 1022.9 in WSW 1.8 mph 7.9 mph 83 % 0.0 in
16:32 -0.8 °F -3.3 °F 1021.9 in SW 1.3 mph 7.9 mph 83 % 0.0 in
16:36 -0.9 °F -3.4 °F 1021.9 in SW 1.0 mph 7.9 mph 83 % 0.0 in
16:41 -1.0 °F -3.4 °F 1021.9 in SW 0.8 mph 6.8 mph 84 % 0.0 in
16:46 -1.1 °F -3.4 °F 1022.9 in Calm     84 % 0.0 in
16:48 -1.1 °F -3.4 °F 1022.9 in Calm     84 % 0.0 in
16:53 -1.2 °F -3.6 °F 1022.9 in Calm     84 % 0.0 in
16:56 -1.3 °F -3.7 °F 1022.9 in Calm     84 % 0.0 in
17:01 -1.4 °F -3.8 °F 1021.9 in Calm     84 % 0.0 in
17:03 -1.4 °F -3.8 °F 1021.9 in Calm     84 % 0.0 in
17:08 -1.4 °F -3.8 °F 1021.9 in Calm     84 % 0.0 in
17:09 -1.5 °F -3.8 °F 1021.9 in Calm     84 % 0.0 in
17:14 0.0 °F 1.4 °F 1022.9 in Calm     0 % 0.0 in
17:15 -1.6 °F -3.9 °F 1022.9 in Calm     84 % 0.0 in
17:17 -1.6 °F -3.9 °F 1022.9 in Calm     84 % 0.0 in
17:21 -1.6 °F -3.9 °F 1022.9 in Calm     84 % 0.0 in
17:27 -1.7 °F -4.1 °F 1022.9 in NW 0.3 mph 3.2 mph 84 % 0.0 in
17:30 -1.8 °F -4.2 °F 1022.9 in NW 0.3 mph 3.2 mph 84 % 0.0 in
17:33 -1.8 °F -4.0 °F 1022.9 in NW 0.3 mph 3.2 mph 85 % 0.0 in
17:38 -1.9 °F -4.1 °F 1022.9 in Calm     85 % 0.0 in
17:41 -1.9 °F -4.1 °F 1022.9 in Calm     85 % 0.0 in
17:44 -1.9 °F -4.1 °F 1022.9 in Calm     85 % 0.0 in
17:46 -2.0 °F -4.2 °F 1022.9 in Calm     85 % 0.0 in
17:50 -2.0 °F -4.2 °F 1022.9 in Calm     85 % 0.0 in
17:53 -2.0 °F -4.2 °F 1022.9 in Calm     85 % 0.0 in
17:58 -2.1 °F -4.3 °F 1022.9 in Calm     85 % 0.0 in
18:00 -2.1 °F -4.1 °F 1022.9 in NW 0.2 mph 2.6 mph 86 % 0.0 in
18:05 -2.1 °F -4.1 °F 1022.9 in NW 0.3 mph 2.6 mph 86 % 0.0 in
18:07 -2.2 °F -4.2 °F 1022.9 in NW 0.3 mph 2.6 mph 86 % 0.0 in
18:11 -2.2 °F -4.2 °F 1022.9 in Calm     86 % 0.0 in
18:17 -2.3 °F -4.3 °F 1023.9 in Calm     86 % 0.0 in
18:20 -2.3 °F -4.3 °F 1023.9 in Calm     86 % 0.0 in
18:23 -2.3 °F -4.3 °F 1023.9 in Calm     86 % 0.0 in
18:28 -2.4 °F -4.4 °F 1023.9 in Calm     86 % 0.0 in
18:29 -2.4 °F -4.4 °F 1023.9 in Calm     86 % 0.0 in
18:34 -2.5 °F -4.5 °F 1023.9 in Calm     86 % 0.0 in
18:35 -2.5 °F -4.5 °F 1023.9 in Calm     86 % 0.0 in
18:40 -2.6 °F -4.6 °F 1023.9 in Calm     86 % 0.0 in
18:41 -2.6 °F -4.6 °F 1023.9 in Calm     86 % 0.0 in
18:43 -2.6 °F -4.6 °F 1023.9 in Calm     86 % 0.0 in
18:46 -2.7 °F -4.7 °F 1023.9 in Calm     86 % 0.0 in
18:51 -2.7 °F -4.7 °F 1023.9 in Calm   3.5 mph 86 % 0.0 in
18:52 -2.7 °F -4.7 °F 1023.9 in NW 0.2 mph 3.5 mph 86 % 0.0 in
18:57 -2.7 °F -4.6 °F 1023.9 in NW 0.2 mph 3.5 mph 87 % 0.0 in
19:02 -2.7 °F -4.6 °F 1023.9 in NW 0.2 mph 1.8 mph 87 % 0.0 in
19:04 -2.7 °F -4.6 °F 1023.9 in Calm   1.8 mph 87 % 0.0 in
19:07 -2.8 °F -4.7 °F 1023.9 in Calm   1.8 mph 87 % 0.0 in
19:12 -2.8 °F -4.7 °F 1023.9 in Calm     87 % 0.0 in
19:13 -2.8 °F -4.7 °F 1023.9 in Calm     87 % 0.0 in
19:16 -2.8 °F -4.7 °F 1023.9 in Calm     87 % 0.0 in
19:19 -2.8 °F -4.7 °F 1023.9 in Calm     87 % 0.0 in
19:25 -2.9 °F -4.8 °F 1023.9 in Calm     87 % 0.0 in
19:30 -2.9 °F -4.8 °F 1023.9 in Calm     87 % 0.0 in
19:32 -2.9 °F -4.8 °F 1023.9 in Calm     87 % 0.0 in
19:35 -2.9 °F -4.8 °F 1023.9 in Calm     87 % 0.0 in
19:39 -2.9 °F -4.8 °F 1023.9 in Calm     87 % 0.0 in
19:44 -2.9 °F -4.8 °F 1023.9 in Calm     87 % 0.0 in
19:46 -2.8 °F -4.5 °F 1024.9 in Calm     88 % 0.0 in
19:51 -2.8 °F -4.5 °F 1024.9 in Calm     88 % 0.0 in
19:53 -2.8 °F -4.5 °F 1024.9 in NW 0.2 mph 3.2 mph 88 % 0.0 in
19:58 -2.8 °F -4.5 °F 1024.9 in NW 0.5 mph 3.2 mph 88 % 0.0 in
20:02 -2.7 °F -4.4 °F 1024.9 in NW 0.6 mph 3.2 mph 88 % 0.0 in
20:03 -2.7 °F -4.4 °F 1024.9 in NW 0.5 mph 2.6 mph 88 % 0.0 in
20:08 -2.6 °F -4.3 °F 1024.9 in West 0.3 mph 5.0 mph 88 % 0.0 in
20:12 -2.6 °F -4.3 °F 1024.9 in West 1.9 mph 5.0 mph 88 % 0.0 in
20:13 -2.6 °F -4.3 °F 1024.9 in West 2.1 mph 5.0 mph 88 % 0.0 in
20:18 -2.5 °F -4.2 °F 1023.9 in WSW 2.7 mph 5.0 mph 88 % 0.0 in
20:19 -2.5 °F -4.2 °F 1023.9 in WSW 2.3 mph 4.7 mph 88 % 0.0 in
20:24 -2.5 °F -4.2 °F 1023.9 in North 0.3 mph   88 % 0.0 in
20:29 -2.5 °F -4.1 °F 1024.9 in Calm     89 % 0.0 in
20:32 -2.5 °F -4.1 °F 1024.9 in Calm     89 % 0.0 in
20:38 -2.4 °F -3.9 °F 1024.9 in Calm     89 % 0.0 in
20:39 -2.4 °F -3.9 °F 1024.9 in Calm     89 % 0.0 in
20:43 -2.4 °F -3.9 °F 1024.9 in Calm     89 % 0.0 in
20:48 -2.3 °F -3.9 °F 1024.9 in Calm     89 % 0.0 in
20:49 -2.3 °F -3.9 °F 1024.9 in Calm     89 % 0.0 in
20:53 -2.3 °F -3.9 °F 1024.9 in Calm     89 % 0.0 in
20:54 -2.3 °F -3.9 °F 1024.9 in Calm     89 % 0.0 in
20:59 -2.3 °F -3.9 °F 1024.9 in Calm     89 % 0.0 in
21:02 -2.3 °F -3.9 °F 1024.9 in Calm     89 % 0.0 in
21:07 -2.4 °F -3.9 °F 1024.9 in SSW 0.2 mph 2.6 mph 89 % 0.0 in
21:12 -2.4 °F -3.9 °F 1024.9 in SSW 0.8 mph 3.2 mph 89 % 0.0 in
21:17 -2.4 °F -3.9 °F 1026.0 in SSW 0.6 mph 3.2 mph 89 % 0.0 in
21:19 -2.5 °F -4.1 °F 1026.0 in SW 0.3 mph 2.1 mph 89 % 0.0 in
21:24 -2.5 °F -4.1 °F 1026.0 in Calm     89 % 0.0 in
21:29 -2.6 °F -4.0 °F 1026.0 in Calm     90 % 0.0 in
21:34 -2.6 °F -4.0 °F 1026.0 in Calm     90 % 0.0 in
21:36 -2.7 °F -4.1 °F 1026.0 in Calm     90 % 0.0 in
21:41 -2.7 °F -4.1 °F 1026.0 in Calm     90 % 0.0 in
21:44 -2.8 °F -4.2 °F 1026.0 in Calm     90 % 0.0 in
21:45 -2.8 °F -4.2 °F 1026.0 in Calm     90 % 0.0 in
21:50 -2.8 °F -4.2 °F 1026.0 in Calm     90 % 0.0 in
21:51 -2.8 °F -4.2 °F 1026.0 in Calm     90 % 0.0 in
21:56 -2.9 °F -4.3 °F 1026.0 in Calm     90 % 0.0 in
21:57 -2.9 °F -4.3 °F 1026.0 in Calm     90 % 0.0 in
22:02 -3.0 °F -4.4 °F 1026.0 in Calm     90 % 0.0 in
22:04 -3.1 °F -4.5 °F 1026.0 in Calm     90 % 0.0 in
22:09 -3.2 °F -4.6 °F 1026.0 in Calm     90 % 0.0 in
22:10 -3.2 °F -4.6 °F 1026.0 in Calm     90 % 0.0 in
22:15 -3.3 °F -4.7 °F 1027.0 in Calm     90 % 0.0 in
22:16 -3.3 °F -4.7 °F 1027.0 in Calm     90 % 0.0 in
22:18 -3.3 °F -4.7 °F 1027.0 in Calm     90 % 0.0 in
22:23 -3.4 °F -4.8 °F 1027.0 in Calm     90 % 0.0 in
22:26 -3.4 °F -4.8 °F 1027.0 in Calm     90 % 0.0 in
22:31 -3.5 °F -4.9 °F 1027.0 in Calm     90 % 0.0 in
22:36 -3.6 °F -5.0 °F 1027.0 in Calm     90 % 0.0 in
22:37 -3.6 °F -5.0 °F 1027.0 in Calm     90 % 0.0 in
22:42 -3.7 °F -5.1 °F 1027.0 in Calm     90 % 0.0 in
22:47 -3.7 °F -5.1 °F 1027.0 in Calm     90 % 0.0 in
22:49 -3.7 °F -5.1 °F 1027.0 in Calm     90 % 0.0 in
22:53 -3.8 °F -5.2 °F 1027.0 in Calm     90 % 0.0 in
22:54 -3.8 °F -5.2 °F 1027.0 in Calm     90 % 0.0 in
22:59 -3.9 °F -5.3 °F 1027.0 in Calm     90 % 0.0 in
23:04 -4.0 °F -5.4 °F 1027.0 in Calm     90 % 0.0 in
23:05 -4.0 °F -5.4 °F 1027.0 in Calm     90 % 0.0 in
23:08 -4.0 °F -5.4 °F 1027.0 in Calm     90 % 0.0 in
23:13 -4.1 °F -5.5 °F 1027.0 in Calm     90 % 0.0 in
23:17 -4.1 °F -5.5 °F 1027.0 in Calm     90 % 0.0 in
23:22 -4.2 °F -5.6 °F 1027.0 in Calm     90 % 0.0 in
23:23 -4.2 °F -5.6 °F 1027.0 in Calm     90 % 0.0 in
23:28 -4.2 °F -5.6 °F 1027.0 in Calm     90 % 0.0 in
23:32 -4.3 °F -5.7 °F 1026.0 in Calm     90 % 0.0 in
23:33 -4.3 °F -5.7 °F 1026.0 in Calm     90 % 0.0 in
23:38 -4.4 °F -5.8 °F 1026.0 in Calm     90 % 0.0 in
23:43 -4.4 °F -5.8 °F 1026.0 in Calm     90 % 0.0 in
23:44 -4.4 °F -5.8 °F 1026.0 in Calm     90 % 0.0 in
23:46 -4.5 °F -5.9 °F 1026.0 in Calm     90 % 0.0 in
23:51 -4.6 °F -6.0 °F 1026.0 in Calm     90 % 0.0 in
23:52 -4.6 °F -6.0 °F 1026.0 in Calm     90 % 0.0 in
23:54 -4.6 °F -6.0 °F 1026.0 in Calm     90 % 0.0 in
23:59 -4.6 °F -6.0 °F 1026.0 in Calm     90 % 0.0 in
Vremenska postaja Senovo
Podatki zbrani iz Weather Underground - 3.5 mb

Script developed by  Jim McMurry - jmcmurry@mwt.net Adapted for the template by  Wim van der Kuil - Leuven-Template.eu

Vremenski podatki so objavljeni na:

European Weather Network

WeatherCloud

Weather Underground

AWEKAS

HAMweather, WeatherForYou, PWS Weather

MapView

Geostik

Slovenia weather network

Oprema, ki se uporablja:

Vremenski program
Cumulus

Vremenski server
Asus

Cumulus

Asus